createdAt,value
2023-01-07T00:01:48.805Z,12.38
2023-01-07T00:04:18.965Z,12.95
2023-01-07T00:06:51.083Z,14.43
2023-01-07T00:09:20.804Z,13.95
2023-01-07T00:11:50.525Z,13.27
2023-01-07T00:14:20.282Z,13.70
2023-01-07T00:16:49.894Z,16.13
2023-01-07T00:19:19.690Z,16.25
2023-01-07T00:21:49.457Z,15.18
2023-01-07T00:24:19.096Z,15.95
2023-01-07T00:26:48.767Z,15.77
2023-01-07T00:29:20.381Z,16.38
2023-01-07T00:31:50.050Z,17.55
2023-01-07T00:34:25.102Z,15.90
2023-01-07T00:37:14.392Z,14.93
2023-01-07T00:39:43.990Z,16.55
2023-01-07T00:42:33.265Z,16.27
2023-01-07T00:45:03.029Z,16.02
2023-01-07T00:47:32.652Z,16.52
2023-01-07T00:50:02.511Z,16.50
2023-01-07T00:52:32.190Z,16.85
2023-01-07T00:55:01.956Z,18.50
2023-01-07T00:57:31.609Z,15.32
2023-01-07T01:00:02.542Z,16.63
2023-01-07T01:02:32.218Z,16.92
2023-01-07T01:05:01.936Z,16.50
2023-01-07T01:07:31.568Z,17.70
2023-01-07T01:10:01.098Z,17.55
2023-01-07T01:12:31.236Z,17.42
2023-01-07T01:15:00.870Z,19.92
2023-01-07T01:17:30.413Z,20.13
2023-01-07T01:20:00.000Z,20.20
2023-01-07T01:22:30.248Z,20.20
2023-01-07T01:24:59.816Z,19.27
2023-01-07T01:27:31.117Z,18.95
2023-01-07T01:30:01.466Z,20.20
2023-01-07T01:32:31.884Z,18.98
2023-01-07T01:35:02.298Z,19.55
2023-01-07T01:37:31.926Z,19.63
2023-01-07T01:40:05.683Z,18.48
2023-01-07T01:42:35.969Z,18.17
2023-01-07T01:45:08.076Z,17.83
2023-01-07T01:47:55.759Z,18.25
2023-01-07T01:50:44.052Z,19.40
2023-01-07T01:53:24.443Z,17.63
2023-01-07T01:56:00.740Z,17.85
2023-01-07T01:58:41.996Z,17.73
2023-01-07T02:01:12.143Z,17.60
2023-01-07T02:03:42.042Z,18.80
2023-01-07T02:06:19.930Z,18.48
2023-01-07T02:08:49.699Z,19.20
2023-01-07T02:11:54.478Z,20.13
2023-01-07T02:15:03.294Z,20.95
2023-01-07T02:17:59.573Z,21.05
2023-01-07T02:20:55.715Z,20.60
2023-01-07T02:23:53.679Z,18.67
2023-01-07T02:29:43.596Z,21.38
2023-01-07T02:32:48.105Z,20.65
2023-01-07T02:35:57.337Z,22.17
2023-01-07T02:39:06.312Z,20.98
2023-01-07T02:42:09.233Z,20.13
2023-01-07T02:44:53.817Z,21.38
2023-01-07T02:47:36.351Z,20.83
2023-01-07T02:50:08.285Z,21.85
2023-01-07T02:52:39.066Z,19.90
2023-01-07T02:55:47.847Z,21.83
2023-01-07T02:58:41.160Z,20.88
2023-01-07T03:01:50.051Z,19.75
2023-01-07T03:04:50.077Z,20.35
2023-01-07T03:07:39.177Z,21.35
2023-01-07T03:10:35.171Z,19.35
2023-01-07T03:13:12.484Z,19.70
2023-01-07T03:15:50.664Z,19.03
2023-01-07T03:20:55.336Z,18.13
2023-01-07T03:23:28.090Z,18.85
2023-01-07T03:26:02.833Z,18.92
2023-01-07T03:28:37.813Z,18.30
2023-01-07T03:31:09.892Z,19.00
2023-01-07T03:34:05.949Z,18.30
2023-01-07T03:36:41.357Z,18.25
2023-01-07T03:39:13.051Z,18.40
2023-01-07T03:42:02.716Z,18.15
2023-01-07T03:44:32.251Z,17.15
2023-01-07T03:47:01.959Z,19.35
2023-01-07T03:49:31.773Z,18.70
2023-01-07T03:52:01.318Z,18.85
2023-01-07T03:54:31.245Z,17.55
2023-01-07T03:57:00.860Z,17.83
2023-01-07T03:59:30.561Z,18.48
2023-01-07T04:02:00.404Z,17.23
2023-01-07T04:04:30.173Z,15.77
2023-01-07T04:07:00.068Z,17.10
2023-01-07T04:09:29.711Z,16.88
2023-01-07T04:11:59.408Z,15.95
2023-01-07T04:14:29.204Z,16.67
2023-01-07T04:16:58.906Z,15.07
2023-01-07T04:19:28.528Z,16.05
2023-01-07T04:21:58.240Z,15.65
2023-01-07T04:24:28.097Z,16.00
2023-01-07T04:26:57.696Z,15.70
2023-01-07T04:29:27.419Z,15.65
2023-01-07T04:31:57.382Z,14.75
2023-01-07T04:34:27.244Z,17.75
2023-01-07T04:36:57.702Z,15.35
2023-01-07T04:39:27.361Z,13.55
2023-01-07T04:41:57.040Z,14.35
2023-01-07T04:44:26.706Z,14.38
2023-01-07T04:46:56.341Z,13.35
2023-01-07T04:49:26.097Z,12.32
2023-01-07T04:51:55.956Z,12.82
2023-01-07T04:54:25.655Z,12.18
2023-01-07T04:56:55.679Z,12.32
2023-01-07T04:59:25.754Z,13.38
2023-01-07T05:01:55.473Z,12.52
2023-01-07T05:04:25.293Z,11.63
2023-01-07T05:06:55.010Z,11.00
2023-01-07T05:09:24.582Z,11.60
2023-01-07T05:11:54.069Z,11.65
2023-01-07T05:14:23.858Z,11.43
2023-01-07T05:16:53.470Z,12.00
2023-01-07T05:19:23.670Z,12.35
2023-01-07T05:21:53.281Z,12.13
2023-01-07T05:24:22.867Z,11.98
2023-01-07T05:26:52.447Z,11.35
2023-01-07T05:29:22.190Z,11.80
2023-01-07T05:31:51.787Z,12.20
2023-01-07T05:34:21.812Z,13.57
2023-01-07T05:36:51.447Z,13.27
2023-01-07T05:39:21.660Z,13.35
2023-01-07T05:41:51.267Z,13.05
2023-01-07T05:44:20.989Z,13.00
2023-01-07T05:46:50.623Z,12.98
2023-01-07T05:49:20.264Z,12.63
2023-01-07T05:51:49.891Z,12.38
2023-01-07T05:54:19.621Z,11.88
2023-01-07T05:56:49.199Z,11.98
2023-01-07T05:59:19.452Z,11.73
2023-01-07T06:01:49.118Z,12.60
2023-01-07T06:04:18.810Z,11.88
2023-01-07T06:06:48.512Z,11.60
2023-01-07T06:09:18.083Z,10.43
2023-01-07T06:11:47.695Z,12.05
2023-01-07T06:14:17.404Z,11.75
2023-01-07T06:16:46.911Z,11.05
2023-01-07T06:19:16.548Z,11.27
2023-01-07T06:21:46.217Z,10.90
2023-01-07T06:24:15.859Z,10.95
2023-01-07T06:26:45.374Z,11.32
2023-01-07T06:29:15.141Z,10.60
2023-01-07T06:31:44.674Z,10.80
2023-01-07T06:34:14.149Z,10.95
2023-01-07T06:36:43.732Z,11.07
2023-01-07T06:39:14.208Z,10.40
2023-01-07T06:41:44.491Z,11.63
2023-01-07T06:44:14.151Z,10.57
2023-01-07T06:46:43.795Z,11.43
2023-01-07T06:49:13.686Z,9.95
2023-01-07T06:51:43.281Z,10.60
2023-01-07T06:54:13.596Z,11.50
2023-01-07T06:56:43.334Z,11.35
2023-01-07T06:59:13.440Z,11.13
2023-01-07T07:01:45.627Z,11.23
2023-01-07T07:04:16.026Z,11.43
2023-01-07T07:06:45.644Z,11.00
2023-01-07T07:09:15.316Z,10.10
2023-01-07T07:11:45.084Z,10.85
2023-01-07T07:14:14.802Z,10.98
2023-01-07T07:16:44.421Z,10.38
2023-01-07T07:19:14.352Z,10.02
2023-01-07T07:21:43.925Z,10.45
2023-01-07T07:24:13.536Z,11.32
2023-01-07T07:26:43.256Z,11.02
2023-01-07T07:29:13.460Z,11.93
2023-01-07T07:31:43.046Z,11.82
2023-01-07T07:34:13.135Z,11.68
2023-01-07T07:36:42.704Z,11.05
2023-01-07T07:39:13.926Z,11.25
2023-01-07T07:41:43.772Z,10.93
2023-01-07T07:44:14.259Z,10.98
2023-01-07T07:46:44.039Z,10.68
2023-01-07T07:49:14.470Z,10.40
2023-01-07T07:51:44.141Z,12.23
2023-01-07T07:54:13.834Z,12.15
2023-01-07T07:56:45.953Z,10.93
2023-01-07T07:59:15.585Z,12.55
2023-01-07T08:01:45.684Z,11.25
2023-01-07T08:04:15.366Z,12.20
2023-01-07T08:06:45.003Z,12.23
2023-01-07T08:09:14.777Z,12.73
2023-01-07T08:11:44.402Z,12.80
2023-01-07T08:14:14.063Z,12.18
2023-01-07T08:16:43.701Z,12.32
2023-01-07T08:19:13.556Z,12.30
2023-01-07T08:21:43.355Z,11.95
2023-01-07T08:24:13.110Z,12.52
2023-01-07T08:26:42.758Z,13.73
2023-01-07T08:29:12.327Z,12.50
2023-01-07T08:31:42.122Z,12.68
2023-01-07T08:34:11.788Z,12.43
2023-01-07T08:36:41.421Z,12.65
2023-01-07T08:39:11.414Z,12.32
2023-01-07T08:41:40.992Z,12.05
2023-01-07T08:44:10.743Z,11.65
2023-01-07T08:46:41.144Z,10.98
2023-01-07T08:49:12.580Z,13.07
2023-01-07T08:51:42.226Z,12.02
2023-01-07T08:54:11.857Z,12.13
2023-01-07T08:56:41.605Z,11.57
2023-01-07T08:59:11.490Z,11.60
2023-01-07T09:01:41.293Z,11.48
2023-01-07T09:04:11.431Z,11.95
2023-01-07T09:06:41.184Z,11.32
2023-01-07T09:09:11.872Z,11.88
2023-01-07T09:11:41.541Z,12.05
2023-01-07T09:14:11.222Z,13.18
2023-01-07T09:16:41.028Z,11.95
2023-01-07T09:19:10.897Z,12.20
2023-01-07T09:21:40.481Z,11.10
2023-01-07T09:24:10.309Z,11.95
2023-01-07T09:26:40.088Z,12.27
2023-01-07T09:29:09.758Z,11.23
2023-01-07T09:31:40.115Z,11.90
2023-01-07T09:34:09.866Z,12.82
2023-01-07T09:36:39.455Z,12.02
2023-01-07T09:39:09.116Z,11.23
2023-01-07T09:42:06.781Z,11.73
2023-01-07T09:47:28.355Z,12.23
2023-01-07T09:50:05.483Z,12.93
2023-01-07T09:52:45.317Z,12.57
2023-01-07T09:55:26.385Z,12.95
2023-01-07T09:57:56.247Z,11.48
2023-01-07T10:00:27.156Z,12.05
2023-01-07T10:03:24.676Z,11.90
2023-01-07T10:06:31.659Z,12.65
2023-01-07T10:09:34.892Z,13.02
2023-01-07T10:12:43.630Z,13.07
2023-01-07T10:15:52.418Z,12.48
2023-01-07T10:18:52.054Z,12.27
2023-01-07T10:21:46.925Z,13.57
2023-01-07T10:24:36.248Z,13.30
2023-01-07T10:27:16.269Z,13.43
2023-01-07T10:29:50.625Z,13.73
2023-01-07T10:32:23.387Z,13.43
2023-01-07T10:34:57.978Z,12.65
2023-01-07T10:37:34.117Z,13.18
2023-01-07T10:40:35.122Z,12.82
2023-01-07T10:43:43.940Z,12.48
2023-01-07T10:46:39.779Z,13.43
2023-01-07T10:49:40.661Z,15.55
2023-01-07T10:52:40.183Z,14.20
2023-01-07T10:55:33.658Z,13.32
2023-01-07T10:58:04.303Z,12.88
2023-01-07T11:00:34.329Z,12.35
2023-01-07T11:03:04.081Z,13.60
2023-01-07T11:05:40.727Z,13.50
2023-01-07T11:08:38.157Z,13.98
2023-01-07T11:11:09.456Z,13.55
2023-01-07T11:13:41.332Z,14.23
2023-01-07T11:16:15.664Z,13.60
2023-01-07T11:19:04.227Z,14.02
2023-01-07T11:21:45.898Z,12.85
2023-01-07T11:24:36.501Z,12.93
2023-01-07T11:27:27.191Z,13.02
2023-01-07T11:30:25.189Z,12.77
2023-01-07T11:33:24.125Z,13.15
2023-01-07T11:36:13.772Z,13.73
2023-01-07T11:38:45.064Z,12.80
2023-01-07T11:41:34.493Z,12.43
2023-01-07T11:44:04.146Z,13.00
2023-01-07T11:46:34.792Z,13.40
2023-01-07T11:49:04.584Z,12.95
2023-01-07T11:51:42.453Z,13.95
2023-01-07T11:54:23.758Z,12.60
2023-01-07T11:56:54.989Z,13.35
2023-01-07T11:59:32.528Z,13.73
2023-01-07T12:02:02.656Z,13.37
2023-01-07T12:04:41.899Z,12.95
2023-01-07T12:07:17.385Z,13.77
2023-01-07T12:09:48.349Z,14.27
2023-01-07T12:12:36.625Z,13.57
2023-01-07T12:15:32.129Z,15.63
2023-01-07T12:18:40.858Z,21.27
2023-01-07T12:21:49.640Z,15.07
2023-01-07T12:24:51.766Z,17.30
2023-01-07T12:27:54.253Z,16.73
2023-01-07T12:30:51.258Z,17.55
2023-01-07T12:33:57.094Z,17.20
2023-01-07T12:36:52.633Z,17.00
2023-01-07T12:39:44.683Z,17.38
2023-01-07T12:42:26.718Z,17.50
2023-01-07T12:45:05.788Z,16.73
2023-01-07T12:47:48.073Z,16.17
2023-01-07T12:50:40.312Z,16.70
2023-01-07T12:53:20.163Z,17.92
2023-01-07T12:55:56.921Z,24.42
2023-01-07T12:58:58.414Z,21.05
2023-01-07T13:01:45.525Z,24.52
2023-01-07T13:04:54.395Z,26.17
2023-01-07T13:08:04.399Z,26.60
2023-01-07T13:10:53.305Z,23.52
2023-01-07T13:13:44.620Z,21.42
2023-01-07T13:16:14.525Z,21.20
2023-01-07T13:18:44.435Z,20.48
2023-01-07T13:21:18.834Z,19.08
2023-01-07T13:24:55.639Z,20.02
2023-01-07T13:27:52.613Z,20.40
2023-01-07T13:30:46.368Z,21.15
2023-01-07T13:33:55.121Z,22.63
2023-01-07T13:37:01.578Z,27.40
2023-01-07T13:40:11.515Z,31.73
2023-01-07T13:43:20.263Z,31.70
2023-01-07T13:46:13.400Z,28.50
2023-01-07T13:48:49.237Z,27.85
2023-01-07T13:51:26.870Z,28.08
2023-01-07T13:53:57.350Z,28.20
2023-01-07T13:56:37.606Z,26.40
2023-01-07T13:59:27.008Z,25.42
2023-01-07T14:02:24.251Z,29.42
2023-01-07T14:05:30.097Z,27.60
2023-01-07T14:08:05.732Z,30.13
2023-01-07T14:10:38.117Z,29.23
2023-01-07T14:13:36.328Z,32.83
2023-01-07T14:16:20.223Z,33.13
2023-01-07T14:19:29.080Z,30.45
2023-01-07T14:22:32.176Z,30.67
2023-01-07T14:25:41.115Z,32.60
2023-01-07T14:28:49.952Z,32.78
2023-01-07T14:31:25.771Z,33.35
2023-01-07T14:34:28.674Z,38.90
2023-01-07T14:37:17.780Z,37.08
2023-01-07T14:39:48.660Z,35.70
2023-01-07T14:42:44.231Z,35.10
2023-01-07T14:45:53.438Z,33.90
2023-01-07T14:48:39.695Z,30.65
2023-01-07T14:51:34.554Z,31.70
2023-01-07T14:54:43.559Z,31.65
2023-01-07T14:57:43.501Z,31.08
2023-01-07T15:00:52.241Z,29.50
2023-01-07T15:03:48.322Z,29.90
2023-01-07T15:06:45.089Z,29.05
2023-01-07T15:09:46.796Z,28.55
2023-01-07T15:12:45.006Z,28.08
2023-01-07T15:15:46.180Z,30.60
2023-01-07T15:18:17.330Z,30.02
2023-01-07T15:21:12.945Z,29.63
2023-01-07T15:24:13.686Z,28.65
2023-01-07T15:27:22.543Z,32.67
2023-01-07T15:30:22.515Z,30.73
2023-01-07T15:33:31.251Z,31.48
2023-01-07T15:36:01.207Z,29.75
2023-01-07T15:38:39.831Z,28.50
2023-01-07T15:41:23.355Z,28.63
2023-01-07T15:43:53.905Z,27.85
2023-01-07T15:46:24.758Z,28.42
2023-01-07T15:49:18.972Z,29.05
2023-01-07T15:51:51.879Z,27.75
2023-01-07T15:54:32.783Z,27.70
2023-01-07T15:57:13.158Z,27.42
2023-01-07T15:59:51.999Z,28.92
2023-01-07T16:02:37.345Z,28.38
2023-01-07T16:05:09.363Z,28.25
2023-01-07T16:08:02.304Z,28.35
2023-01-07T16:10:35.054Z,26.02
2023-01-07T16:13:19.924Z,28.15
2023-01-07T16:15:55.420Z,26.85
2023-01-07T16:18:25.373Z,28.10
2023-01-07T16:21:00.564Z,28.63
2023-01-07T16:23:35.582Z,27.98
2023-01-07T16:26:13.022Z,28.17
2023-01-07T16:29:07.513Z,30.05
2023-01-07T16:31:37.892Z,26.77
2023-01-07T16:34:39.281Z,27.92
2023-01-07T16:37:17.502Z,26.60
2023-01-07T16:42:24.919Z,25.70
2023-01-07T16:45:02.279Z,25.98
2023-01-07T16:47:34.566Z,26.57
2023-01-07T16:50:38.799Z,26.23
2023-01-07T16:53:27.412Z,26.70
2023-01-07T16:56:17.846Z,26.20
2023-01-07T16:58:55.584Z,23.85
2023-01-07T17:01:36.031Z,27.05
2023-01-07T17:04:12.053Z,26.92
2023-01-07T17:06:44.067Z,25.25
2023-01-07T17:09:37.143Z,25.48
2023-01-07T17:12:07.765Z,25.90
2023-01-07T17:14:52.498Z,24.25
2023-01-07T17:17:34.660Z,23.70
2023-01-07T17:20:24.287Z,23.00
2023-01-07T17:22:53.997Z,24.80
2023-01-07T17:25:30.084Z,24.98
2023-01-07T17:28:08.668Z,23.45
2023-01-07T17:30:39.168Z,24.40
2023-01-07T17:33:08.785Z,23.67
2023-01-07T17:35:47.456Z,23.58
2023-01-07T17:38:18.806Z,23.45
2023-01-07T17:40:49.061Z,22.48
2023-01-07T17:43:42.602Z,22.38
2023-01-07T17:46:15.304Z,22.58
2023-01-07T17:48:44.931Z,22.85
2023-01-07T17:51:14.851Z,26.85
2023-01-07T17:53:50.936Z,22.60
2023-01-07T17:56:21.906Z,22.58
2023-01-07T17:58:52.867Z,23.75
2023-01-07T18:01:25.642Z,24.15
2023-01-07T18:03:56.380Z,25.05
2023-01-07T18:06:29.060Z,24.95
2023-01-07T18:08:58.945Z,24.83
2023-01-07T18:11:49.962Z,25.10
2023-01-07T18:14:19.652Z,24.70
2023-01-07T18:16:49.352Z,25.83
2023-01-07T18:19:19.364Z,24.55
2023-01-07T18:21:49.094Z,25.00
2023-01-07T18:24:21.426Z,25.13
2023-01-07T18:26:51.323Z,25.75
2023-01-07T18:29:20.927Z,24.25
2023-01-07T18:31:50.771Z,27.50
2023-01-07T18:34:20.290Z,28.08
2023-01-07T18:36:49.931Z,28.38
2023-01-07T18:39:22.238Z,29.02
2023-01-07T18:41:52.381Z,31.13
2023-01-07T18:44:24.086Z,30.30
2023-01-07T18:46:54.009Z,28.33
2023-01-07T18:49:23.650Z,27.85
2023-01-07T18:51:53.252Z,27.70
2023-01-07T18:54:22.903Z,27.98
2023-01-07T18:56:53.356Z,26.38
2023-01-07T18:59:23.473Z,24.67
2023-01-07T19:01:54.802Z,24.05
2023-01-07T19:04:25.837Z,25.90
2023-01-07T19:06:55.551Z,23.67
2023-01-07T19:09:25.241Z,22.83
2023-01-07T19:11:54.951Z,22.20
2023-01-07T19:14:24.610Z,24.10
2023-01-07T19:16:55.234Z,20.63
2023-01-07T19:19:25.293Z,22.73
2023-01-07T19:21:55.541Z,22.85
2023-01-07T19:24:26.106Z,22.38
2023-01-07T19:26:55.829Z,21.52
2023-01-07T19:29:25.527Z,22.75
2023-01-07T19:31:55.290Z,21.88
2023-01-07T19:34:24.961Z,20.92
2023-01-07T19:36:54.655Z,21.92
2023-01-07T19:39:26.006Z,22.08
2023-01-07T19:41:55.658Z,21.52
2023-01-07T19:44:25.221Z,21.95
2023-01-07T19:46:55.001Z,21.20
2023-01-07T19:49:24.677Z,22.48
2023-01-07T19:51:54.275Z,22.15
2023-01-07T19:54:24.057Z,23.83
2023-01-07T19:56:53.814Z,24.33
2023-01-07T19:59:23.408Z,22.55
2023-01-07T20:01:54.994Z,22.70
2023-01-07T20:04:24.725Z,22.95
2023-01-07T20:06:54.397Z,23.42
2023-01-07T20:09:24.755Z,23.55
2023-01-07T20:11:54.355Z,23.30
2023-01-07T20:14:23.945Z,23.45
2023-01-07T20:16:53.584Z,23.02
2023-01-07T20:19:25.011Z,22.33
2023-01-07T20:21:55.023Z,22.88
2023-01-07T20:24:24.575Z,22.38
2023-01-07T20:26:54.897Z,22.08
2023-01-07T20:29:24.691Z,23.85
2023-01-07T20:31:54.327Z,26.05
2023-01-07T20:34:23.902Z,24.40
2023-01-07T20:36:53.642Z,26.73
2023-01-07T20:39:23.527Z,25.25
2023-01-07T20:41:53.100Z,26.35
2023-01-07T20:44:23.557Z,27.63
2023-01-07T20:46:53.158Z,26.67
2023-01-07T20:49:22.736Z,24.50
2023-01-07T20:51:52.506Z,23.38
2023-01-07T20:54:22.063Z,23.67
2023-01-07T20:56:51.646Z,22.48
2023-01-07T20:59:22.094Z,21.10
2023-01-07T21:01:51.861Z,21.20
2023-01-07T21:04:21.621Z,19.63
2023-01-07T21:06:51.271Z,20.30
2023-01-07T21:09:21.365Z,21.25
2023-01-07T21:11:51.136Z,20.75
2023-01-07T21:14:20.816Z,20.55
2023-01-07T21:16:50.528Z,20.00
2023-01-07T21:19:20.188Z,19.17
2023-01-07T21:21:50.434Z,21.10
2023-01-07T21:24:20.383Z,19.55
2023-01-07T21:26:50.733Z,20.27
2023-01-07T21:29:20.378Z,19.98
2023-01-07T21:31:50.007Z,19.85
2023-01-07T21:34:19.895Z,20.05
2023-01-07T21:36:50.052Z,20.13
2023-01-07T21:39:19.737Z,18.90
2023-01-07T21:41:49.520Z,19.70
2023-01-07T21:44:19.148Z,19.85
2023-01-07T21:46:48.753Z,19.73
2023-01-07T21:49:20.836Z,21.55
2023-01-07T21:51:52.085Z,21.30
2023-01-07T21:54:21.832Z,19.52
2023-01-07T21:56:51.522Z,22.10
2023-01-07T21:59:22.568Z,21.17
2023-01-07T22:01:53.467Z,19.42
2023-01-07T22:04:23.262Z,22.02
2023-01-07T22:06:52.966Z,23.38
2023-01-07T22:09:22.736Z,21.30
2023-01-07T22:11:52.347Z,23.00
2023-01-07T22:14:22.063Z,21.17
2023-01-07T22:16:52.044Z,22.98
2023-01-07T22:19:21.721Z,21.15
2023-01-07T22:21:51.275Z,21.92
2023-01-07T22:24:21.551Z,22.05
2023-01-07T22:26:51.210Z,22.00
2023-01-07T22:29:20.819Z,20.00
2023-01-07T22:31:52.645Z,20.63
2023-01-07T22:34:22.425Z,19.50
2023-01-07T22:37:14.286Z,20.33
2023-01-07T22:39:59.264Z,21.13
2023-01-07T22:42:35.176Z,20.40
2023-01-07T22:45:13.156Z,21.75
2023-01-07T22:47:46.228Z,21.73
2023-01-07T22:50:16.863Z,20.70
2023-01-07T22:52:47.767Z,22.00
2023-01-07T22:55:17.488Z,22.25
2023-01-07T22:57:47.239Z,22.83
2023-01-07T23:00:38.929Z,23.10
2023-01-07T23:03:09.621Z,21.05
2023-01-07T23:05:41.417Z,20.00
2023-01-07T23:08:11.431Z,22.02
2023-01-07T23:10:42.045Z,21.83
2023-01-07T23:13:12.170Z,21.95
2023-01-07T23:15:42.095Z,21.35
2023-01-07T23:18:13.159Z,24.50
2023-01-07T23:20:45.068Z,24.50
2023-01-07T23:23:15.052Z,25.02
2023-01-07T23:25:50.131Z,25.80
2023-01-07T23:28:20.727Z,24.00
2023-01-07T23:30:50.536Z,25.33
2023-01-07T23:33:20.159Z,23.65
2023-01-07T23:35:49.833Z,25.40
2023-01-07T23:38:19.728Z,24.05
2023-01-07T23:40:49.318Z,24.60
2023-01-07T23:43:18.900Z,23.23
2023-01-07T23:45:48.637Z,23.17
2023-01-07T23:48:18.262Z,22.33
2023-01-07T23:50:47.912Z,22.92
2023-01-07T23:53:17.661Z,23.90
2023-01-07T23:55:55.798Z,23.75
2023-01-07T23:58:27.664Z,23.35
